Michipicoten — CFG8060 — position and weather

sailwx.info

Track history (hours):
 
Tides and Currents Weather Stations Pressure Air Temp Water Temp Dewpoint Dewpoint Depression Visibility Wind Speed Wind Dir Waves Ship Positions

Michipicoten

Last reported at 2016-Jan-16 01:09 UTC. Time now 2016-Feb-10 15:15 UTC.
Position N 47°01' W 091°39'.
Warning: this ship's position is 25 days out of date.

Length 213 m; draft 7.2 m.

Type: Cargo ship. MMSI: 316002501.

Date/timePositionNaut miles runAvg speedWind from/ knotsBaromVisibWave heightAir tempDewpointWater temp
2016-Jan-16 01:09N 47°01' W 091°39'1 0.2
2016-Jan-15 20:30N 47°01' W 091°40'  
2016-Jan-13 13:33N 47°00' W 091°40'1 0.3
2016-Jan-13 11:25N 47°01' W 091°41'0 0.0
2016-Jan-13 08:33N 47°01' W 091°40'0 0.0
2016-Jan-12 01:04N 47°01' W 091°40'1 1.7
2016-Jan-12 00:32N 47°00' W 091°40'  
2016-Jan-09 11:09N 47°01' W 091°37'2 2.7
2016-Jan-09 10:21N 47°01' W 091°40'0 0.0
2016-Jan-09 09:31N 47°01' W 091°40'0 0.0
2016-Jan-09 07:28N 47°01' W 091°40'0 0.0
2016-Jan-07 23:33N 47°01' W 091°40'5 5.0
2016-Jan-07 22:34N 46°56' W 091°44'1111.3
2016-Jan-07 21:33N 46°50' W 091°58'7 6.9
2016-Jan-07 20:33N 46°45' W 092°06'0 0.0
2016-Jan-07 19:33N 46°45' W 092°06'0 0.3
2016-Jan-07 18:33N 46°46' W 092°06'9 9.0
2016-Jan-07 17:33N 46°50' W 091°54'1414.1
2016-Jan-07 16:33N 46°56' W 091°36'  
Track history (hours):
 
Tides and Currents Weather Stations Pressure Air Temp Water Temp Dewpoint Dewpoint Depression Visibility Wind Speed Wind Dir Waves Ship Positions

Michipicoten

Last reported at 2016-Jan-16 01:09 UTC. Time now 2016-Feb-10 15:15 UTC.
Position N 47°01' W 091°39'.
Warning: this ship's position is 25 days out of date.

Length 213 m; draft 7.2 m.

Type: Cargo ship. MMSI: 316002501.

Date/timePositionNaut miles runAvg speedWind from/ knotsBaromVisibWave heightAir tempDewpointWater temp
2016-Jan-16 01:09N 47°01' W 091°39'1 0.2
2016-Jan-15 20:30N 47°01' W 091°40'  
2016-Jan-13 13:33N 47°00' W 091°40'1 0.3
2016-Jan-13 11:25N 47°01' W 091°41'0 0.0
2016-Jan-13 08:33N 47°01' W 091°40'0 0.0
2016-Jan-12 01:04N 47°01' W 091°40'1 1.7
2016-Jan-12 00:32N 47°00' W 091°40'  
2016-Jan-09 11:09N 47°01' W 091°37'2 2.7
2016-Jan-09 10:21N 47°01' W 091°40'0 0.0
2016-Jan-09 09:31N 47°01' W 091°40'0 0.0
2016-Jan-09 07:28N 47°01' W 091°40'0 0.0
2016-Jan-07 23:33N 47°01' W 091°40'5 5.0
2016-Jan-07 22:34N 46°56' W 091°44'1111.3
2016-Jan-07 21:33N 46°50' W 091°58'7 6.9
2016-Jan-07 20:33N 46°45' W 092°06'0 0.0
2016-Jan-07 19:33N 46°45' W 092°06'0 0.3
2016-Jan-07 18:33N 46°46' W 092°06'9 9.0
2016-Jan-07 17:33N 46°50' W 091°54'1414.1
2016-Jan-07 16:33N 46°56' W 091°36'  

Dump ship's entire track history